Westgard — PDBQ — position and weather

sailwx.info

Track history (hours):
 
Tides and Currents Weather Stations Pressure Air Temp Water Temp Dewpoint Dewpoint Depression Visibility Wind Speed Wind Dir Waves Ship Positions

Westgard

Last reported at 2017-Dec-04 09:50 UTC. Time now 2017-Dec-12 18:11 UTC.
Position N 38°31' W 008°53'.
Warning: this ship's position is 8 days out of date.

Length 89 m; draft 5.8 m.

Type: Ship. MMSI: 246457000.

Date/timePositionNaut miles runAvg speedWind from/ knotsBaromVisibWave heightAir tempDewpointWater temp
2017-Dec-04 09:50N 38°31' W 008°53'0 0.0
2017-Dec-04 09:23N 38°31' W 008°53'0 0.0
2017-Dec-04 08:56N 38°31' W 008°53'0 0.0
2017-Dec-04 08:29N 38°31' W 008°53'0 0.0
2017-Dec-04 07:59N 38°31' W 008°53'0 0.0
2017-Dec-04 07:29N 38°31' W 008°53'0 0.0
2017-Dec-04 06:59N 38°31' W 008°53'0 0.0
2017-Dec-04 06:26N 38°31' W 008°53'0 0.0
2017-Dec-04 05:59N 38°31' W 008°53'0 0.0
2017-Dec-04 05:29N 38°31' W 008°53'0 0.0
2017-Dec-04 04:59N 38°31' W 008°53'0 0.0
2017-Dec-04 04:29N 38°31' W 008°53'0 0.0
2017-Dec-04 03:59N 38°31' W 008°53'0 0.0
2017-Dec-04 03:29N 38°31' W 008°53'0 0.0
2017-Dec-04 02:59N 38°31' W 008°53'0 0.0
2017-Dec-04 02:26N 38°31' W 008°53'0 0.0
2017-Dec-04 01:59N 38°31' W 008°53'0 0.0
2017-Dec-04 01:29N 38°31' W 008°53'0 0.0
2017-Dec-04 00:59N 38°31' W 008°53'0 0.0
2017-Dec-04 00:26N 38°31' W 008°53'0 0.0
2017-Dec-03 23:59N 38°31' W 008°53'0 0.0
2017-Dec-03 23:29N 38°31' W 008°53'0 0.0
2017-Dec-03 22:56N 38°31' W 008°53'0 0.0
2017-Dec-03 22:29N 38°31' W 008°53'0 0.0
2017-Dec-03 21:59N 38°31' W 008°53'0 0.0
2017-Dec-03 21:29N 38°31' W 008°53'0 0.0
2017-Dec-03 20:59N 38°31' W 008°53'0 0.0
2017-Dec-03 20:29N 38°31' W 008°53'0 0.0
2017-Dec-03 19:56N 38°31' W 008°53'0 0.0
2017-Dec-03 19:26N 38°31' W 008°53'0 0.0
2017-Dec-03 18:59N 38°31' W 008°53'0 0.0
2017-Dec-03 10:13N 38°31' W 008°53'1 6.1
2017-Dec-03 10:00N 38°31' W 008°55'510.3
2017-Dec-03 09:30N 38°27' W 008°59'1 2.0
2017-Dec-03 09:00N 38°26' W 008°60'4 7.1
2017-Dec-03 08:30N 38°25' W 009°04'4 8.0
2017-Dec-03 08:00N 38°24' W 009°09'9 7.8
2017-Dec-03 06:50N 38°25' W 009°21'3 8.3
2017-Dec-03 06:30N 38°26' W 009°24'4 8.3
2017-Dec-03 06:00N 38°27' W 009°29'4 8.2
2017-Dec-03 05:30N 38°28' W 009°34'3 6.1
2017-Dec-03 05:00N 38°29' W 009°37'4 7.3
2017-Dec-03 04:30N 38°30' W 009°42'4 7.6
2017-Dec-03 04:00N 38°32' W 009°47'4 7.5
2017-Dec-03 03:30N 38°33' W 009°51'4 8.3
2017-Dec-03 02:59N 38°34' W 009°56'15 8.4
2017-Dec-03 01:11N 38°47' W 010°05'3 9.8
2017-Dec-03 00:54N 38°50' W 010°05'510.0
2017-Dec-03 00:25N 38°55' W 010°05'4 9.6
2017-Dec-03 00:00N 38°59' W 010°05'5 9.4
2017-Dec-02 23:30N 39°04' W 010°06'5 9.3
2017-Dec-02 23:00N 39°08' W 010°06'  
2017-Nov-29 22:43N 49°47' W 003°21'311.3
2017-Nov-29 22:29N 49°48' W 003°18'1311.7
2017-Nov-29 21:25N 49°55' W 003°01'511.8
2017-Nov-29 20:58N 49°57' W 002°53'811.6
2017-Nov-29 20:18N 49°60' W 002°42'36 9.5
2017-Nov-29 16:32N 50°10' W 001°49'1 8.1
2017-Nov-29 16:26N 50°10' W 001°47'5910.0
2017-Nov-29 10:31N 50°28' W 000°19'011.5
2017-Nov-29 10:30N 50°28' W 000°19'611.4
2017-Nov-29 10:00N 50°30' W 000°10'611.3
2017-Nov-29 09:30N 50°32' W 000°01'611.2
2017-Nov-29 09:00N 50°34' E 000°07'611.2
2017-Nov-29 08:30N 50°35' E 000°15'511.0
2017-Nov-29 08:00N 50°37' E 000°23'510.8
2017-Nov-29 07:30N 50°38' E 000°32'510.5
2017-Nov-29 07:00N 50°41' E 000°39'510.5
2017-Nov-29 06:30N 50°44' E 000°46'2110.5
2017-Nov-29 04:32N 50°56' E 001°12'111.1
2017-Nov-29 04:26N 50°57' E 001°14'511.7
2017-Nov-29 04:00N 50°60' E 001°20'612.6
2017-Nov-29 03:30N 51°04' E 001°27'713.2
2017-Nov-29 03:00N 51°08' E 001°35'612.6
2017-Nov-29 02:30N 51°13' E 001°43'612.1
2017-Nov-29 02:00N 51°17' E 001°49'611.6
2017-Nov-29 01:30N 51°22' E 001°55'5 9.6
2017-Nov-29 01:00N 51°24' E 002°01'5 9.8
2017-Nov-29 00:29N 51°23' E 002°09'5 9.9
2017-Nov-29 00:00N 51°21' E 002°16'5 9.6
2017-Nov-28 23:30N 51°22' E 002°24'5 9.6
2017-Nov-28 22:59N 51°23' E 002°32'5 9.6
2017-Nov-28 22:27N 51°22' E 002°40'4 7.9
2017-Nov-28 22:00N 51°22' E 002°46'5 9.1
2017-Nov-28 21:29N 51°22' E 002°53'4 9.3
2017-Nov-28 21:00N 51°22' E 003°00'4 9.0
2017-Nov-28 20:30N 51°23' E 003°07'4 8.9
2017-Nov-28 20:00N 51°23' E 003°14'4 8.8
2017-Nov-28 19:30N 51°24' E 003°21'4 8.5
2017-Nov-28 19:00N 51°25' E 003°28'4 8.3
2017-Nov-28 18:29N 51°25' E 003°35'4 8.5
2017-Nov-28 18:00N 51°24' E 003°41'5 9.4
2017-Nov-28 17:30N 51°21' E 003°47'4 8.9
2017-Nov-28 17:00N 51°22' E 003°55'5 9.3
2017-Nov-28 16:30N 51°26' E 003°59'4 8.3
2017-Nov-28 16:00N 51°23' E 004°03'9 8.8
2017-Nov-28 15:00N 51°20' E 004°16'4 8.6
2017-Nov-28 14:31N 51°17' E 004°20'0 0.0
2017-Nov-28 14:00N 51°17' E 004°20'0 0.8
2017-Nov-28 13:30N 51°16' E 004°20'0 0.5
2017-Nov-28 13:00N 51°16' E 004°21'1 2.7
2017-Nov-28 12:30N 51°15' E 004°21'0 0.0
2017-Nov-28 11:59N 51°15' E 004°21'0 0.0
2017-Nov-28 11:29N 51°15' E 004°21'0 0.0
2017-Nov-28 10:59N 51°15' E 004°21'0 0.0
2017-Nov-28 10:29N 51°15' E 004°21'0 0.0
2017-Nov-28 09:59N 51°15' E 004°21'0 0.0
2017-Nov-28 09:26N 51°15' E 004°21'0 0.0
2017-Nov-28 08:59N 51°15' E 004°21'0 0.0
2017-Nov-28 08:29N 51°15' E 004°21'0 0.0
2017-Nov-28 07:59N 51°15' E 004°21'0 0.0
2017-Nov-28 07:29N 51°15' E 004°21'0 0.0
2017-Nov-28 06:59N 51°15' E 004°21'0 0.0
2017-Nov-28 06:26N 51°15' E 004°21'0 0.0
2017-Nov-28 06:00N 51°15' E 004°21'0 0.0
2017-Nov-28 05:29N 51°15' E 004°21'0 0.0
2017-Nov-28 04:29N 51°15' E 004°21'0 0.0
2017-Nov-28 03:59N 51°15' E 004°21'0 0.0
2017-Nov-28 03:29N 51°15' E 004°21'0 0.0
2017-Nov-28 02:59N 51°15' E 004°21'0 0.0
2017-Nov-28 02:29N 51°15' E 004°21'0 0.0
2017-Nov-28 01:59N 51°15' E 004°21'0 0.0
2017-Nov-28 01:29N 51°15' E 004°21'0 0.0
2017-Nov-28 00:59N 51°15' E 004°21'0 0.0
2017-Nov-28 00:29N 51°15' E 004°21'0 0.0
2017-Nov-27 23:59N 51°15' E 004°21'0 0.0
2017-Nov-27 23:30N 51°15' E 004°21'0 0.0
2017-Nov-27 22:59N 51°15' E 004°21'0 0.0
2017-Nov-27 22:29N 51°15' E 004°21'0 0.0
2017-Nov-27 21:59N 51°15' E 004°21'0 0.0
2017-Nov-27 21:26N 51°15' E 004°21'0 0.0
2017-Nov-27 20:59N 51°15' E 004°21'0 0.0
2017-Nov-27 20:28N 51°15' E 004°21'0 0.0
2017-Nov-27 19:55N 51°15' E 004°21'0 0.0
2017-Nov-27 19:28N 51°15' E 004°21'0 0.0
2017-Nov-27 18:58N 51°15' E 004°21'0 0.0
2017-Nov-27 18:28N 51°15' E 004°21'0 0.0
2017-Nov-27 15:46N 51°15' E 004°21'0 0.0
2017-Nov-27 15:28N 51°15' E 004°21'0 0.0
2017-Nov-27 14:58N 51°15' E 004°21'0 0.0
2017-Nov-27 14:28N 51°15' E 004°21'0 0.0
2017-Nov-27 13:58N 51°15' E 004°21'0 0.0
2017-Nov-27 13:28N 51°15' E 004°21'0 0.0
2017-Nov-27 12:58N 51°15' E 004°21'0 0.0
2017-Nov-27 12:28N 51°15' E 004°21'0 0.0
2017-Nov-27 11:58N 51°15' E 004°21'0 0.0
2017-Nov-27 11:28N 51°15' E 004°21'0 0.0
2017-Nov-27 10:58N 51°15' E 004°21'0 0.0
2017-Nov-27 10:25N 51°15' E 004°21'0 0.0
2017-Nov-27 09:58N 51°15' E 004°21'0 0.0
2017-Nov-27 09:28N 51°15' E 004°21'0 0.0
2017-Nov-27 08:58N 51°15' E 004°21'0 0.0
2017-Nov-27 08:28N 51°15' E 004°21'0 0.0
2017-Nov-27 07:58N 51°15' E 004°21'0 0.0
2017-Nov-27 07:28N 51°15' E 004°21'0 0.0
2017-Nov-27 06:58N 51°15' E 004°21'0 0.0
2017-Nov-27 06:28N 51°15' E 004°21'0 0.0
2017-Nov-27 05:58N 51°15' E 004°21'0 0.0
2017-Nov-27 05:28N 51°15' E 004°21'0 0.0
2017-Nov-27 04:58N 51°15' E 004°21'0 0.0
2017-Nov-27 04:31N 51°15' E 004°21'0 0.0
2017-Nov-27 04:01N 51°15' E 004°21'0 0.0
2017-Nov-27 03:30N 51°15' E 004°21'0 0.0
2017-Nov-27 03:00N 51°15' E 004°21'0 0.0
2017-Nov-27 02:30N 51°15' E 004°21'0 0.0
2017-Nov-27 02:00N 51°15' E 004°21'0 0.0
2017-Nov-27 01:30N 51°15' E 004°21'0 0.0
2017-Nov-27 01:00N 51°15' E 004°21'0 0.0
2017-Nov-27 00:30N 51°15' E 004°21'0 0.0
2017-Nov-27 00:00N 51°15' E 004°21'0 0.0
2017-Nov-26 23:30N 51°15' E 004°21'0 0.0
2017-Nov-26 23:00N 51°15' E 004°21'0 0.0
2017-Nov-26 22:30N 51°15' E 004°21'0 0.0
2017-Nov-26 22:00N 51°15' E 004°21'0 0.0
2017-Nov-26 21:30N 51°15' E 004°21'0 0.0
2017-Nov-26 21:00N 51°15' E 004°21'0 0.0
2017-Nov-26 20:30N 51°15' E 004°21'0 0.0
2017-Nov-26 20:00N 51°15' E 004°21'0 0.0
2017-Nov-26 19:30N 51°15' E 004°21'0 0.0
2017-Nov-26 19:00N 51°15' E 004°21'0 0.0
2017-Nov-26 18:30N 51°15' E 004°21'0 0.0
2017-Nov-26 18:00N 51°15' E 004°21'0 0.0
2017-Nov-26 17:30N 51°15' E 004°21'0 0.0
2017-Nov-26 17:00N 51°15' E 004°21'0 0.0
2017-Nov-26 16:30N 51°15' E 004°21'0 0.0
2017-Nov-26 16:00N 51°15' E 004°21'0 0.0
2017-Nov-26 15:30N 51°15' E 004°21'0 0.0
2017-Nov-26 15:00N 51°15' E 004°21'0 0.0
2017-Nov-26 14:30N 51°15' E 004°21'0 0.0
2017-Nov-26 14:00N 51°15' E 004°21'0 0.0
2017-Nov-26 13:30N 51°15' E 004°21'0 0.0
2017-Nov-26 13:00N 51°15' E 004°21'0 0.0
2017-Nov-26 12:30N 51°15' E 004°21'0 0.0
2017-Nov-26 12:00N 51°15' E 004°21'0 0.0
2017-Nov-26 11:30N 51°15' E 004°21'0 0.0
2017-Nov-26 11:00N 51°15' E 004°21'0 0.0
2017-Nov-26 10:30N 51°15' E 004°21'0 0.0
2017-Nov-26 10:00N 51°15' E 004°21'0 0.0
2017-Nov-26 09:30N 51°15' E 004°21'0 0.0
2017-Nov-26 09:00N 51°15' E 004°21'0 0.0
2017-Nov-26 08:30N 51°15' E 004°21'0 0.0
2017-Nov-26 08:00N 51°15' E 004°21'0 0.0
2017-Nov-26 07:30N 51°15' E 004°21'0 0.0
2017-Nov-26 07:00N 51°15' E 004°21'0 0.0
2017-Nov-26 06:30N 51°15' E 004°21'0 0.0
2017-Nov-26 06:00N 51°15' E 004°21'0 0.0
2017-Nov-26 05:30N 51°15' E 004°21'0 0.0
2017-Nov-26 05:00N 51°15' E 004°21'0 0.5
2017-Nov-26 04:30N 51°15' E 004°22'3 6.2
2017-Nov-26 04:00N 51°18' E 004°20'4 7.6
2017-Nov-26 03:30N 51°21' E 004°17'0 0.2
2017-Nov-26 02:26N 51°22' E 004°17'0 0.0
2017-Nov-26 01:50N 51°22' E 004°17'0 0.0
2017-Nov-26 01:20N 51°22' E 004°17'0 0.0
2017-Nov-26 00:50N 51°22' E 004°17'0 0.0
2017-Nov-25 23:34N 51°22' E 004°17'0 0.0
2017-Nov-25 23:25N 51°22' E 004°17'0 0.0
2017-Nov-25 22:43N 51°22' E 004°17'0 0.0
2017-Nov-25 22:22N 51°22' E 004°17'0 0.0
2017-Nov-25 21:58N 51°22' E 004°17'0 0.0
2017-Nov-25 21:28N 51°22' E 004°17'0 0.0
2017-Nov-25 20:55N 51°22' E 004°17'0 0.0
2017-Nov-25 20:25N 51°22' E 004°17'0 0.0
2017-Nov-25 19:52N 51°22' E 004°17'0 0.0
2017-Nov-25 19:10N 51°22' E 004°17'0 0.0
2017-Nov-25 18:58N 51°22' E 004°17'0 0.0
2017-Nov-25 18:07N 51°22' E 004°17'0 0.0
2017-Nov-25 17:55N 51°22' E 004°17'0 0.0
2017-Nov-25 17:28N 51°22' E 004°17'0 0.0
2017-Nov-25 16:55N 51°22' E 004°17'0 0.0
2017-Nov-25 16:16N 51°22' E 004°17'0 0.0
2017-Nov-25 15:49N 51°22' E 004°17'0 0.0
2017-Nov-25 15:25N 51°22' E 004°17'0 0.0
2017-Nov-25 14:58N 51°22' E 004°17'0 0.0
2017-Nov-25 14:28N 51°22' E 004°17'0 0.0
2017-Nov-25 13:58N 51°22' E 004°17'0 0.0
2017-Nov-25 13:22N 51°22' E 004°17'0 0.0
2017-Nov-25 12:55N 51°22' E 004°17'0 0.0
2017-Nov-25 12:28N 51°22' E 004°17'0 0.0
2017-Nov-25 11:49N 51°22' E 004°17'0 0.0
2017-Nov-25 11:28N 51°22' E 004°17'0 0.0
2017-Nov-25 10:52N 51°22' E 004°17'0 0.0
2017-Nov-25 10:19N 51°22' E 004°17'0 0.0
2017-Nov-25 09:52N 51°22' E 004°17'0 0.0
2017-Nov-25 08:28N 51°22' E 004°17'0 0.0
2017-Nov-25 07:58N 51°22' E 004°17'0 0.0
2017-Nov-25 07:28N 51°22' E 004°17'0 0.0
2017-Nov-25 06:58N 51°22' E 004°17'0 0.0
2017-Nov-25 06:16N 51°22' E 004°17'0 0.0
2017-Nov-25 05:55N 51°22' E 004°17'0 0.0
2017-Nov-25 04:55N 51°22' E 004°17'0 0.0
2017-Nov-25 04:28N 51°22' E 004°17'0 0.0
2017-Nov-25 02:49N 51°22' E 004°17'0 0.0
2017-Nov-25 02:28N 51°22' E 004°17'0 0.0
2017-Nov-25 01:58N 51°22' E 004°17'0 0.0
2017-Nov-25 01:28N 51°22' E 004°17'0 0.0
2017-Nov-25 00:46N 51°22' E 004°17'0 0.0
2017-Nov-25 00:22N 51°22' E 004°17'0 0.0
2017-Nov-24 23:52N 51°22' E 004°17'0 0.0
2017-Nov-24 23:28N 51°22' E 004°17'0 0.0
2017-Nov-24 22:58N 51°22' E 004°17'0 0.0
2017-Nov-24 22:28N 51°22' E 004°17'0 0.0
2017-Nov-24 21:58N 51°22' E 004°17'0 0.0
2017-Nov-24 20:43N 51°22' E 004°17'0 0.1
2017-Nov-24 20:30N 51°22' E 004°17'1 1.6
2017-Nov-24 20:01N 51°21' E 004°17'0 0.0
2017-Nov-24 19:29N 51°21' E 004°17'0 1.0
2017-Nov-24 19:00N 51°21' E 004°16'3 6.6
2017-Nov-24 18:30N 51°23' E 004°13'510.0
2017-Nov-24 18:01N 51°22' E 004°05'510.5
2017-Nov-24 17:31N 51°26' E 003°59'612.7
2017-Nov-24 17:01N 51°21' E 003°53'612.3
2017-Nov-24 16:31N 51°23' E 003°43'612.2
2017-Nov-24 16:00N 51°25' E 003°34'713.9
2017-Nov-24 15:30N 51°24' E 003°23'713.9
2017-Nov-24 15:01N 51°23' E 003°12'713.3
2017-Nov-24 14:31N 51°21' E 003°02'612.5
2017-Nov-24 14:00N 51°22' E 002°52'611.9
2017-Nov-24 13:28N 51°22' E 002°42'5 9.5
2017-Nov-24 12:59N 51°20' E 002°35'0 0.1
2017-Nov-24 12:28N 51°20' E 002°35'0 0.0
2017-Nov-24 11:55N 51°20' E 002°35'0 0.0
2017-Nov-24 11:28N 51°20' E 002°35'0 0.0
2017-Nov-24 10:52N 51°20' E 002°35'0 0.0
2017-Nov-24 10:16N 51°20' E 002°35'0 0.0
2017-Nov-24 09:58N 51°20' E 002°35'  
Track history (hours):
 
Tides and Currents Weather Stations Pressure Air Temp Water Temp Dewpoint Dewpoint Depression Visibility Wind Speed Wind Dir Waves Ship Positions

Westgard

Last reported at 2017-Dec-04 09:50 UTC. Time now 2017-Dec-12 18:11 UTC.
Position N 38°31' W 008°53'.
Warning: this ship's position is 8 days out of date.

Length 89 m; draft 5.8 m.

Type: Ship. MMSI: 246457000.

Date/timePositionNaut miles runAvg speedWind from/ knotsBaromVisibWave heightAir tempDewpointWater temp
2017-Dec-04 09:50N 38°31' W 008°53'0 0.0
2017-Dec-04 09:23N 38°31' W 008°53'0 0.0
2017-Dec-04 08:56N 38°31' W 008°53'0 0.0
2017-Dec-04 08:29N 38°31' W 008°53'0 0.0
2017-Dec-04 07:59N 38°31' W 008°53'0 0.0
2017-Dec-04 07:29N 38°31' W 008°53'0 0.0
2017-Dec-04 06:59N 38°31' W 008°53'0 0.0
2017-Dec-04 06:26N 38°31' W 008°53'0 0.0
2017-Dec-04 05:59N 38°31' W 008°53'0 0.0
2017-Dec-04 05:29N 38°31' W 008°53'0 0.0
2017-Dec-04 04:59N 38°31' W 008°53'0 0.0
2017-Dec-04 04:29N 38°31' W 008°53'0 0.0
2017-Dec-04 03:59N 38°31' W 008°53'0 0.0
2017-Dec-04 03:29N 38°31' W 008°53'0 0.0
2017-Dec-04 02:59N 38°31' W 008°53'0 0.0
2017-Dec-04 02:26N 38°31' W 008°53'0 0.0
2017-Dec-04 01:59N 38°31' W 008°53'0 0.0
2017-Dec-04 01:29N 38°31' W 008°53'0 0.0
2017-Dec-04 00:59N 38°31' W 008°53'0 0.0
2017-Dec-04 00:26N 38°31' W 008°53'0 0.0
2017-Dec-03 23:59N 38°31' W 008°53'0 0.0
2017-Dec-03 23:29N 38°31' W 008°53'0 0.0
2017-Dec-03 22:56N 38°31' W 008°53'0 0.0
2017-Dec-03 22:29N 38°31' W 008°53'0 0.0
2017-Dec-03 21:59N 38°31' W 008°53'0 0.0
2017-Dec-03 21:29N 38°31' W 008°53'0 0.0
2017-Dec-03 20:59N 38°31' W 008°53'0 0.0
2017-Dec-03 20:29N 38°31' W 008°53'0 0.0
2017-Dec-03 19:56N 38°31' W 008°53'0 0.0
2017-Dec-03 19:26N 38°31' W 008°53'0 0.0
2017-Dec-03 18:59N 38°31' W 008°53'0 0.0
2017-Dec-03 10:13N 38°31' W 008°53'1 6.1
2017-Dec-03 10:00N 38°31' W 008°55'510.3
2017-Dec-03 09:30N 38°27' W 008°59'1 2.0
2017-Dec-03 09:00N 38°26' W 008°60'4 7.1
2017-Dec-03 08:30N 38°25' W 009°04'4 8.0
2017-Dec-03 08:00N 38°24' W 009°09'9 7.8
2017-Dec-03 06:50N 38°25' W 009°21'3 8.3
2017-Dec-03 06:30N 38°26' W 009°24'4 8.3
2017-Dec-03 06:00N 38°27' W 009°29'4 8.2
2017-Dec-03 05:30N 38°28' W 009°34'3 6.1
2017-Dec-03 05:00N 38°29' W 009°37'4 7.3
2017-Dec-03 04:30N 38°30' W 009°42'4 7.6
2017-Dec-03 04:00N 38°32' W 009°47'4 7.5
2017-Dec-03 03:30N 38°33' W 009°51'4 8.3
2017-Dec-03 02:59N 38°34' W 009°56'15 8.4
2017-Dec-03 01:11N 38°47' W 010°05'3 9.8
2017-Dec-03 00:54N 38°50' W 010°05'510.0
2017-Dec-03 00:25N 38°55' W 010°05'4 9.6
2017-Dec-03 00:00N 38°59' W 010°05'5 9.4
2017-Dec-02 23:30N 39°04' W 010°06'5 9.3
2017-Dec-02 23:00N 39°08' W 010°06'  
2017-Nov-29 22:43N 49°47' W 003°21'311.3
2017-Nov-29 22:29N 49°48' W 003°18'1311.7
2017-Nov-29 21:25N 49°55' W 003°01'511.8
2017-Nov-29 20:58N 49°57' W 002°53'811.6
2017-Nov-29 20:18N 49°60' W 002°42'36 9.5
2017-Nov-29 16:32N 50°10' W 001°49'1 8.1
2017-Nov-29 16:26N 50°10' W 001°47'5910.0
2017-Nov-29 10:31N 50°28' W 000°19'011.5
2017-Nov-29 10:30N 50°28' W 000°19'611.4
2017-Nov-29 10:00N 50°30' W 000°10'611.3
2017-Nov-29 09:30N 50°32' W 000°01'611.2
2017-Nov-29 09:00N 50°34' E 000°07'611.2
2017-Nov-29 08:30N 50°35' E 000°15'511.0
2017-Nov-29 08:00N 50°37' E 000°23'510.8
2017-Nov-29 07:30N 50°38' E 000°32'510.5
2017-Nov-29 07:00N 50°41' E 000°39'510.5
2017-Nov-29 06:30N 50°44' E 000°46'2110.5
2017-Nov-29 04:32N 50°56' E 001°12'111.1
2017-Nov-29 04:26N 50°57' E 001°14'511.7
2017-Nov-29 04:00N 50°60' E 001°20'612.6
2017-Nov-29 03:30N 51°04' E 001°27'713.2
2017-Nov-29 03:00N 51°08' E 001°35'612.6
2017-Nov-29 02:30N 51°13' E 001°43'612.1
2017-Nov-29 02:00N 51°17' E 001°49'611.6
2017-Nov-29 01:30N 51°22' E 001°55'5 9.6
2017-Nov-29 01:00N 51°24' E 002°01'5 9.8
2017-Nov-29 00:29N 51°23' E 002°09'5 9.9
2017-Nov-29 00:00N 51°21' E 002°16'5 9.6
2017-Nov-28 23:30N 51°22' E 002°24'5 9.6
2017-Nov-28 22:59N 51°23' E 002°32'5 9.6
2017-Nov-28 22:27N 51°22' E 002°40'4 7.9
2017-Nov-28 22:00N 51°22' E 002°46'5 9.1
2017-Nov-28 21:29N 51°22' E 002°53'4 9.3
2017-Nov-28 21:00N 51°22' E 003°00'4 9.0
2017-Nov-28 20:30N 51°23' E 003°07'4 8.9
2017-Nov-28 20:00N 51°23' E 003°14'4 8.8
2017-Nov-28 19:30N 51°24' E 003°21'4 8.5
2017-Nov-28 19:00N 51°25' E 003°28'4 8.3
2017-Nov-28 18:29N 51°25' E 003°35'4 8.5
2017-Nov-28 18:00N 51°24' E 003°41'5 9.4
2017-Nov-28 17:30N 51°21' E 003°47'4 8.9
2017-Nov-28 17:00N 51°22' E 003°55'5 9.3
2017-Nov-28 16:30N 51°26' E 003°59'4 8.3
2017-Nov-28 16:00N 51°23' E 004°03'9 8.8
2017-Nov-28 15:00N 51°20' E 004°16'4 8.6
2017-Nov-28 14:31N 51°17' E 004°20'0 0.0
2017-Nov-28 14:00N 51°17' E 004°20'0 0.8
2017-Nov-28 13:30N 51°16' E 004°20'0 0.5
2017-Nov-28 13:00N 51°16' E 004°21'1 2.7
2017-Nov-28 12:30N 51°15' E 004°21'0 0.0
2017-Nov-28 11:59N 51°15' E 004°21'0 0.0
2017-Nov-28 11:29N 51°15' E 004°21'0 0.0
2017-Nov-28 10:59N 51°15' E 004°21'0 0.0
2017-Nov-28 10:29N 51°15' E 004°21'0 0.0
2017-Nov-28 09:59N 51°15' E 004°21'0 0.0
2017-Nov-28 09:26N 51°15' E 004°21'0 0.0
2017-Nov-28 08:59N 51°15' E 004°21'0 0.0
2017-Nov-28 08:29N 51°15' E 004°21'0 0.0
2017-Nov-28 07:59N 51°15' E 004°21'0 0.0
2017-Nov-28 07:29N 51°15' E 004°21'0 0.0
2017-Nov-28 06:59N 51°15' E 004°21'0 0.0
2017-Nov-28 06:26N 51°15' E 004°21'0 0.0
2017-Nov-28 06:00N 51°15' E 004°21'0 0.0
2017-Nov-28 05:29N 51°15' E 004°21'0 0.0
2017-Nov-28 04:29N 51°15' E 004°21'0 0.0
2017-Nov-28 03:59N 51°15' E 004°21'0 0.0
2017-Nov-28 03:29N 51°15' E 004°21'0 0.0
2017-Nov-28 02:59N 51°15' E 004°21'0 0.0
2017-Nov-28 02:29N 51°15' E 004°21'0 0.0
2017-Nov-28 01:59N 51°15' E 004°21'0 0.0
2017-Nov-28 01:29N 51°15' E 004°21'0 0.0
2017-Nov-28 00:59N 51°15' E 004°21'0 0.0
2017-Nov-28 00:29N 51°15' E 004°21'0 0.0
2017-Nov-27 23:59N 51°15' E 004°21'0 0.0
2017-Nov-27 23:30N 51°15' E 004°21'0 0.0
2017-Nov-27 22:59N 51°15' E 004°21'0 0.0
2017-Nov-27 22:29N 51°15' E 004°21'0 0.0
2017-Nov-27 21:59N 51°15' E 004°21'0 0.0
2017-Nov-27 21:26N 51°15' E 004°21'0 0.0
2017-Nov-27 20:59N 51°15' E 004°21'0 0.0
2017-Nov-27 20:28N 51°15' E 004°21'0 0.0
2017-Nov-27 19:55N 51°15' E 004°21'0 0.0
2017-Nov-27 19:28N 51°15' E 004°21'0 0.0
2017-Nov-27 18:58N 51°15' E 004°21'0 0.0
2017-Nov-27 18:28N 51°15' E 004°21'0 0.0
2017-Nov-27 15:46N 51°15' E 004°21'0 0.0
2017-Nov-27 15:28N 51°15' E 004°21'0 0.0
2017-Nov-27 14:58N 51°15' E 004°21'0 0.0
2017-Nov-27 14:28N 51°15' E 004°21'0 0.0
2017-Nov-27 13:58N 51°15' E 004°21'0 0.0
2017-Nov-27 13:28N 51°15' E 004°21'0 0.0
2017-Nov-27 12:58N 51°15' E 004°21'0 0.0
2017-Nov-27 12:28N 51°15' E 004°21'0 0.0
2017-Nov-27 11:58N 51°15' E 004°21'0 0.0
2017-Nov-27 11:28N 51°15' E 004°21'0 0.0
2017-Nov-27 10:58N 51°15' E 004°21'0 0.0
2017-Nov-27 10:25N 51°15' E 004°21'0 0.0
2017-Nov-27 09:58N 51°15' E 004°21'0 0.0
2017-Nov-27 09:28N 51°15' E 004°21'0 0.0
2017-Nov-27 08:58N 51°15' E 004°21'0 0.0
2017-Nov-27 08:28N 51°15' E 004°21'0 0.0
2017-Nov-27 07:58N 51°15' E 004°21'0 0.0
2017-Nov-27 07:28N 51°15' E 004°21'0 0.0
2017-Nov-27 06:58N 51°15' E 004°21'0 0.0
2017-Nov-27 06:28N 51°15' E 004°21'0 0.0
2017-Nov-27 05:58N 51°15' E 004°21'0 0.0
2017-Nov-27 05:28N 51°15' E 004°21'0 0.0
2017-Nov-27 04:58N 51°15' E 004°21'0 0.0
2017-Nov-27 04:31N 51°15' E 004°21'0 0.0
2017-Nov-27 04:01N 51°15' E 004°21'0 0.0
2017-Nov-27 03:30N 51°15' E 004°21'0 0.0
2017-Nov-27 03:00N 51°15' E 004°21'0 0.0
2017-Nov-27 02:30N 51°15' E 004°21'0 0.0
2017-Nov-27 02:00N 51°15' E 004°21'0 0.0
2017-Nov-27 01:30N 51°15' E 004°21'0 0.0
2017-Nov-27 01:00N 51°15' E 004°21'0 0.0
2017-Nov-27 00:30N 51°15' E 004°21'0 0.0
2017-Nov-27 00:00N 51°15' E 004°21'0 0.0
2017-Nov-26 23:30N 51°15' E 004°21'0 0.0
2017-Nov-26 23:00N 51°15' E 004°21'0 0.0
2017-Nov-26 22:30N 51°15' E 004°21'0 0.0
2017-Nov-26 22:00N 51°15' E 004°21'0 0.0
2017-Nov-26 21:30N 51°15' E 004°21'0 0.0
2017-Nov-26 21:00N 51°15' E 004°21'0 0.0
2017-Nov-26 20:30N 51°15' E 004°21'0 0.0
2017-Nov-26 20:00N 51°15' E 004°21'0 0.0
2017-Nov-26 19:30N 51°15' E 004°21'0 0.0
2017-Nov-26 19:00N 51°15' E 004°21'0 0.0
2017-Nov-26 18:30N 51°15' E 004°21'0 0.0
2017-Nov-26 18:00N 51°15' E 004°21'0 0.0
2017-Nov-26 17:30N 51°15' E 004°21'0 0.0
2017-Nov-26 17:00N 51°15' E 004°21'0 0.0
2017-Nov-26 16:30N 51°15' E 004°21'0 0.0
2017-Nov-26 16:00N 51°15' E 004°21'0 0.0
2017-Nov-26 15:30N 51°15' E 004°21'0 0.0
2017-Nov-26 15:00N 51°15' E 004°21'0 0.0
2017-Nov-26 14:30N 51°15' E 004°21'0 0.0
2017-Nov-26 14:00N 51°15' E 004°21'0 0.0
2017-Nov-26 13:30N 51°15' E 004°21'0 0.0
2017-Nov-26 13:00N 51°15' E 004°21'0 0.0
2017-Nov-26 12:30N 51°15' E 004°21'0 0.0
2017-Nov-26 12:00N 51°15' E 004°21'0 0.0
2017-Nov-26 11:30N 51°15' E 004°21'0 0.0
2017-Nov-26 11:00N 51°15' E 004°21'0 0.0
2017-Nov-26 10:30N 51°15' E 004°21'0 0.0
2017-Nov-26 10:00N 51°15' E 004°21'0 0.0
2017-Nov-26 09:30N 51°15' E 004°21'0 0.0
2017-Nov-26 09:00N 51°15' E 004°21'0 0.0
2017-Nov-26 08:30N 51°15' E 004°21'0 0.0
2017-Nov-26 08:00N 51°15' E 004°21'0 0.0
2017-Nov-26 07:30N 51°15' E 004°21'0 0.0
2017-Nov-26 07:00N 51°15' E 004°21'0 0.0
2017-Nov-26 06:30N 51°15' E 004°21'0 0.0
2017-Nov-26 06:00N 51°15' E 004°21'0 0.0
2017-Nov-26 05:30N 51°15' E 004°21'0 0.0
2017-Nov-26 05:00N 51°15' E 004°21'0 0.5
2017-Nov-26 04:30N 51°15' E 004°22'3 6.2
2017-Nov-26 04:00N 51°18' E 004°20'4 7.6
2017-Nov-26 03:30N 51°21' E 004°17'0 0.2
2017-Nov-26 02:26N 51°22' E 004°17'0 0.0
2017-Nov-26 01:50N 51°22' E 004°17'0 0.0
2017-Nov-26 01:20N 51°22' E 004°17'0 0.0
2017-Nov-26 00:50N 51°22' E 004°17'0 0.0
2017-Nov-25 23:34N 51°22' E 004°17'0 0.0
2017-Nov-25 23:25N 51°22' E 004°17'0 0.0
2017-Nov-25 22:43N 51°22' E 004°17'0 0.0
2017-Nov-25 22:22N 51°22' E 004°17'0 0.0
2017-Nov-25 21:58N 51°22' E 004°17'0 0.0
2017-Nov-25 21:28N 51°22' E 004°17'0 0.0
2017-Nov-25 20:55N 51°22' E 004°17'0 0.0
2017-Nov-25 20:25N 51°22' E 004°17'0 0.0
2017-Nov-25 19:52N 51°22' E 004°17'0 0.0
2017-Nov-25 19:10N 51°22' E 004°17'0 0.0
2017-Nov-25 18:58N 51°22' E 004°17'0 0.0
2017-Nov-25 18:07N 51°22' E 004°17'0 0.0
2017-Nov-25 17:55N 51°22' E 004°17'0 0.0
2017-Nov-25 17:28N 51°22' E 004°17'0 0.0
2017-Nov-25 16:55N 51°22' E 004°17'0 0.0
2017-Nov-25 16:16N 51°22' E 004°17'0 0.0
2017-Nov-25 15:49N 51°22' E 004°17'0 0.0
2017-Nov-25 15:25N 51°22' E 004°17'0 0.0
2017-Nov-25 14:58N 51°22' E 004°17'0 0.0
2017-Nov-25 14:28N 51°22' E 004°17'0 0.0
2017-Nov-25 13:58N 51°22' E 004°17'0 0.0
2017-Nov-25 13:22N 51°22' E 004°17'0 0.0
2017-Nov-25 12:55N 51°22' E 004°17'0 0.0
2017-Nov-25 12:28N 51°22' E 004°17'0 0.0
2017-Nov-25 11:49N 51°22' E 004°17'0 0.0
2017-Nov-25 11:28N 51°22' E 004°17'0 0.0
2017-Nov-25 10:52N 51°22' E 004°17'0 0.0
2017-Nov-25 10:19N 51°22' E 004°17'0 0.0
2017-Nov-25 09:52N 51°22' E 004°17'0 0.0
2017-Nov-25 08:28N 51°22' E 004°17'0 0.0
2017-Nov-25 07:58N 51°22' E 004°17'0 0.0
2017-Nov-25 07:28N 51°22' E 004°17'0 0.0
2017-Nov-25 06:58N 51°22' E 004°17'0 0.0
2017-Nov-25 06:16N 51°22' E 004°17'0 0.0
2017-Nov-25 05:55N 51°22' E 004°17'0 0.0
2017-Nov-25 04:55N 51°22' E 004°17'0 0.0
2017-Nov-25 04:28N 51°22' E 004°17'0 0.0
2017-Nov-25 02:49N 51°22' E 004°17'0 0.0
2017-Nov-25 02:28N 51°22' E 004°17'0 0.0
2017-Nov-25 01:58N 51°22' E 004°17'0 0.0
2017-Nov-25 01:28N 51°22' E 004°17'0 0.0
2017-Nov-25 00:46N 51°22' E 004°17'0 0.0
2017-Nov-25 00:22N 51°22' E 004°17'0 0.0
2017-Nov-24 23:52N 51°22' E 004°17'0 0.0
2017-Nov-24 23:28N 51°22' E 004°17'0 0.0
2017-Nov-24 22:58N 51°22' E 004°17'0 0.0
2017-Nov-24 22:28N 51°22' E 004°17'0 0.0
2017-Nov-24 21:58N 51°22' E 004°17'0 0.0
2017-Nov-24 20:43N 51°22' E 004°17'0 0.1
2017-Nov-24 20:30N 51°22' E 004°17'1 1.6
2017-Nov-24 20:01N 51°21' E 004°17'0 0.0
2017-Nov-24 19:29N 51°21' E 004°17'0 1.0
2017-Nov-24 19:00N 51°21' E 004°16'3 6.6
2017-Nov-24 18:30N 51°23' E 004°13'510.0
2017-Nov-24 18:01N 51°22' E 004°05'510.5
2017-Nov-24 17:31N 51°26' E 003°59'612.7
2017-Nov-24 17:01N 51°21' E 003°53'612.3
2017-Nov-24 16:31N 51°23' E 003°43'612.2
2017-Nov-24 16:00N 51°25' E 003°34'713.9
2017-Nov-24 15:30N 51°24' E 003°23'713.9
2017-Nov-24 15:01N 51°23' E 003°12'713.3
2017-Nov-24 14:31N 51°21' E 003°02'612.5
2017-Nov-24 14:00N 51°22' E 002°52'611.9
2017-Nov-24 13:28N 51°22' E 002°42'5 9.5
2017-Nov-24 12:59N 51°20' E 002°35'0 0.1
2017-Nov-24 12:28N 51°20' E 002°35'0 0.0
2017-Nov-24 11:55N 51°20' E 002°35'0 0.0
2017-Nov-24 11:28N 51°20' E 002°35'0 0.0
2017-Nov-24 10:52N 51°20' E 002°35'0 0.0
2017-Nov-24 10:16N 51°20' E 002°35'0 0.0
2017-Nov-24 09:58N 51°20' E 002°35'  

Dump ship's entire track history